createdAt,value
2022-09-01T00:01:51.058Z,19.73
2022-09-01T00:04:21.627Z,19.76
2022-09-01T00:06:50.755Z,19.89
2022-09-01T00:09:20.458Z,20.08
2022-09-01T00:11:52.474Z,19.89
2022-09-01T00:14:29.481Z,19.81
2022-09-01T00:16:58.529Z,19.84
2022-09-01T00:19:26.332Z,19.95
2022-09-01T00:21:55.214Z,20.20
2022-09-01T00:24:25.988Z,20.27
2022-09-01T00:26:54.293Z,20.30
2022-09-01T00:29:22.034Z,20.16
2022-09-01T00:31:50.220Z,19.90
2022-09-01T00:34:18.302Z,19.88
2022-09-01T00:36:45.897Z,20.13
2022-09-01T00:39:16.715Z,20.02
2022-09-01T00:41:46.950Z,19.99
2022-09-01T00:44:16.931Z,19.96
2022-09-01T00:46:49.848Z,20.03
2022-09-01T00:49:23.608Z,20.16
2022-09-01T00:51:56.368Z,20.32
2022-09-01T00:54:29.927Z,20.22
2022-09-01T00:56:58.942Z,20.20
2022-09-01T00:59:28.865Z,20.00
2022-09-01T01:01:57.174Z,19.83
2022-09-01T01:04:25.527Z,19.77
2022-09-01T01:07:02.701Z,19.86
2022-09-01T01:09:35.456Z,19.79
2022-09-01T01:12:06.618Z,19.81
2022-09-01T01:14:39.603Z,19.94
2022-09-01T01:17:07.628Z,19.82
2022-09-01T01:20:00.692Z,19.48
2022-09-01T01:22:54.134Z,19.27
2022-09-01T01:25:23.962Z,18.95
2022-09-01T01:27:52.154Z,19.03
2022-09-01T01:30:23.617Z,18.69
2022-09-01T01:32:51.846Z,18.78
2022-09-01T01:35:21.771Z,18.67
2022-09-01T01:37:49.316Z,18.62
2022-09-01T01:40:22.028Z,18.52
2022-09-01T01:42:53.509Z,18.60
2022-09-01T01:45:24.188Z,18.74
2022-09-01T01:47:54.022Z,18.71
2022-09-01T01:50:22.782Z,18.72
2022-09-01T01:52:58.105Z,18.59
2022-09-01T01:55:28.817Z,18.58
2022-09-01T01:57:58.204Z,18.65
2022-09-01T02:00:30.362Z,18.72
2022-09-01T02:02:58.826Z,18.56
2022-09-01T02:05:28.788Z,18.63
2022-09-01T02:08:01.712Z,18.74
2022-09-01T02:10:31.895Z,18.79
2022-09-01T02:13:04.674Z,18.63
2022-09-01T02:15:43.605Z,18.74
2022-09-01T02:18:14.117Z,18.44
2022-09-01T02:20:42.398Z,18.39
2022-09-01T02:23:11.575Z,18.41
2022-09-01T02:26:05.156Z,18.41
2022-09-01T02:28:36.740Z,18.34
2022-09-01T02:31:08.802Z,18.50
2022-09-01T02:33:39.075Z,18.56
2022-09-01T02:36:10.394Z,18.60
2022-09-01T02:38:41.785Z,18.48
2022-09-01T02:41:09.842Z,18.33
2022-09-01T02:43:39.917Z,18.21
2022-09-01T02:46:07.757Z,18.29
2022-09-01T02:48:38.022Z,18.21
2022-09-01T02:51:08.164Z,18.23
2022-09-01T02:53:37.400Z,18.22
2022-09-01T02:56:09.491Z,18.19
2022-09-01T02:58:45.923Z,18.08
2022-09-01T03:01:22.600Z,18.20
2022-09-01T03:03:51.249Z,18.00
2022-09-01T03:06:23.911Z,18.00
2022-09-01T03:08:52.267Z,17.94
2022-09-01T03:11:20.194Z,17.92
2022-09-01T03:13:53.092Z,17.96
2022-09-01T03:16:22.373Z,17.80
2022-09-01T03:18:50.552Z,17.98
2022-09-01T03:21:19.226Z,17.86
2022-09-01T03:23:47.647Z,17.84
2022-09-01T03:26:18.543Z,17.92
2022-09-01T03:28:46.808Z,17.75
2022-09-01T03:31:17.372Z,17.54
2022-09-01T03:33:45.048Z,17.80
2022-09-01T03:36:20.038Z,17.82
2022-09-01T03:38:48.597Z,17.87
2022-09-01T03:41:18.114Z,17.79
2022-09-01T03:43:48.430Z,17.73
2022-09-01T03:46:21.497Z,17.78
2022-09-01T03:48:50.975Z,17.62
2022-09-01T03:51:22.125Z,17.64
2022-09-01T03:53:50.758Z,17.59
2022-09-01T03:56:18.320Z,17.45
2022-09-01T03:58:47.215Z,17.45
2022-09-01T04:01:17.286Z,17.50
2022-09-01T04:03:48.881Z,17.61
2022-09-01T04:06:20.326Z,17.28
2022-09-01T04:08:48.261Z,17.17
2022-09-01T04:11:18.969Z,17.18
2022-09-01T04:13:47.415Z,17.12
2022-09-01T04:16:35.641Z,17.27
2022-09-01T04:19:09.182Z,17.41
2022-09-01T04:21:38.285Z,17.33
2022-09-01T04:24:06.255Z,17.37
2022-09-01T04:26:33.849Z,17.06
2022-09-01T04:29:02.185Z,17.20
2022-09-01T04:31:31.601Z,17.30
2022-09-01T04:34:13.670Z,17.35
2022-09-01T04:36:43.568Z,17.17
2022-09-01T04:39:12.339Z,17.20
2022-09-01T04:41:46.198Z,17.10
2022-09-01T04:44:16.701Z,17.19
2022-09-01T04:46:48.277Z,17.24
2022-09-01T04:49:19.551Z,17.35
2022-09-01T04:51:53.278Z,17.32
2022-09-01T04:54:22.613Z,17.32
2022-09-01T04:56:54.874Z,17.37
2022-09-01T04:59:24.726Z,17.39
2022-09-01T05:01:57.315Z,17.36
2022-09-01T05:04:28.332Z,17.45
2022-09-01T05:06:59.658Z,17.51
2022-09-01T05:09:28.946Z,17.54
2022-09-01T05:11:57.888Z,17.62
2022-09-01T05:14:25.993Z,17.48
2022-09-01T05:16:59.406Z,17.42
2022-09-01T05:19:29.010Z,17.42
2022-09-01T05:21:57.878Z,17.30
2022-09-01T05:24:32.066Z,17.27
2022-09-01T05:27:00.368Z,17.21
2022-09-01T05:29:28.870Z,17.27
2022-09-01T05:31:58.779Z,17.40
2022-09-01T05:34:27.924Z,17.26
2022-09-01T05:36:58.133Z,17.30
2022-09-01T05:39:26.430Z,17.23
2022-09-01T05:41:54.627Z,17.40
2022-09-01T05:44:23.685Z,17.40
2022-09-01T05:46:51.547Z,17.49
2022-09-01T05:49:20.745Z,17.33
2022-09-01T05:51:51.638Z,17.29
2022-09-01T05:54:23.073Z,17.50
2022-09-01T05:56:53.403Z,17.60
2022-09-01T05:59:24.868Z,17.65
2022-09-01T06:01:54.206Z,17.60
2022-09-01T06:04:24.722Z,17.77
2022-09-01T06:07:10.352Z,17.70
2022-09-01T06:09:42.645Z,17.64
2022-09-01T06:12:17.182Z,17.81
2022-09-01T06:14:45.583Z,17.81
2022-09-01T06:17:16.276Z,17.86
2022-09-01T06:19:45.948Z,17.96
2022-09-01T06:22:13.516Z,18.00
2022-09-01T06:24:43.648Z,18.13
2022-09-01T06:27:13.196Z,18.20
2022-09-01T06:29:41.597Z,18.32
2022-09-01T06:32:10.675Z,18.31
2022-09-01T06:34:42.368Z,18.34
2022-09-01T06:37:12.916Z,18.33
2022-09-01T06:39:41.242Z,18.26
2022-09-01T06:42:09.470Z,18.37
2022-09-01T06:44:40.783Z,18.58
2022-09-01T06:47:08.985Z,18.79
2022-09-01T06:49:40.074Z,18.74
2022-09-01T06:52:07.722Z,18.81
2022-09-01T06:54:39.526Z,18.80
2022-09-01T06:59:55.069Z,18.96
2022-09-01T07:02:26.550Z,19.04
2022-09-01T07:04:55.503Z,19.01
2022-09-01T07:10:21.417Z,19.06
2022-09-01T07:13:05.653Z,19.17
2022-09-01T07:16:32.065Z,19.09
2022-09-01T07:18:25.117Z,19.36
2022-09-01T07:21:36.186Z,19.41
2022-09-01T07:24:07.913Z,19.42
2022-09-01T07:26:35.531Z,19.60
2022-09-01T07:29:06.286Z,19.69
2022-09-01T07:34:46.079Z,19.73
2022-09-01T07:37:17.295Z,19.77
2022-09-01T07:45:31.249Z,19.99
2022-09-01T07:48:03.068Z,20.09
2022-09-01T07:50:41.336Z,20.11
2022-09-01T07:53:22.627Z,20.22
2022-09-01T07:55:51.875Z,20.23
2022-09-01T07:58:22.264Z,20.32
2022-09-01T08:00:49.957Z,20.35
2022-09-01T08:03:20.473Z,20.39
2022-09-01T08:05:51.254Z,20.41
2022-09-01T08:08:19.237Z,20.38
2022-09-01T08:10:49.418Z,20.43
2022-09-01T08:13:18.978Z,20.44
2022-09-01T08:16:08.521Z,20.54
2022-09-01T08:18:51.601Z,20.58
2022-09-01T08:21:21.980Z,20.65
2022-09-01T08:23:50.291Z,20.68
2022-09-01T08:26:19.644Z,20.78
2022-09-01T08:28:55.071Z,20.83
2022-09-01T08:31:30.788Z,20.85
2022-09-01T08:33:59.951Z,20.98
2022-09-01T08:36:27.592Z,21.09
2022-09-01T08:38:55.431Z,21.17
2022-09-01T08:41:46.773Z,21.22
2022-09-01T08:44:25.952Z,21.30
2022-09-01T08:47:00.923Z,21.39
2022-09-01T08:49:29.211Z,21.47
2022-09-01T08:52:03.371Z,21.52
2022-09-01T08:54:37.987Z,21.52
2022-09-01T08:57:08.160Z,21.60
2022-09-01T08:59:35.718Z,21.72
2022-09-01T09:02:22.823Z,21.83
2022-09-01T09:04:57.182Z,21.76
2022-09-01T09:07:37.532Z,21.93
2022-09-01T09:10:12.866Z,22.00
2022-09-01T09:12:53.174Z,22.09
2022-09-01T09:15:33.876Z,22.11
2022-09-01T09:18:20.020Z,22.20
2022-09-01T09:21:09.529Z,22.25
2022-09-01T09:23:43.087Z,22.33
2022-09-01T09:26:10.955Z,22.37
2022-09-01T09:28:40.045Z,22.50
2022-09-01T09:31:28.512Z,22.56
2022-09-01T09:33:59.105Z,22.60
2022-09-01T09:36:32.752Z,22.50
2022-09-01T09:39:10.668Z,22.63
2022-09-01T09:41:39.899Z,22.77
2022-09-01T09:44:18.525Z,22.77
2022-09-01T09:46:47.704Z,22.79
2022-09-01T09:49:36.123Z,22.93
2022-09-01T09:52:16.685Z,22.99
2022-09-01T09:55:00.578Z,22.81
2022-09-01T09:57:30.684Z,22.92
2022-09-01T10:00:03.351Z,23.03
2022-09-01T10:02:34.602Z,23.09
2022-09-01T10:05:24.857Z,23.25
2022-09-01T10:07:53.174Z,23.33
2022-09-01T10:10:31.498Z,23.49
2022-09-01T10:13:00.604Z,23.57
2022-09-01T10:15:33.307Z,23.48
2022-09-01T10:18:20.751Z,23.67
2022-09-01T10:20:57.364Z,23.75
2022-09-01T10:23:27.650Z,23.89
2022-09-01T10:26:05.975Z,23.87
2022-09-01T10:28:36.254Z,23.99
2022-09-01T10:31:05.232Z,24.10
2022-09-01T10:33:37.061Z,24.21
2022-09-01T10:36:08.328Z,24.23
2022-09-01T10:38:36.249Z,24.24
2022-09-01T10:41:14.726Z,24.35
2022-09-01T10:43:45.262Z,24.48
2022-09-01T10:46:50.435Z,24.59
2022-09-01T10:49:51.531Z,24.62
2022-09-01T10:52:55.866Z,24.61
2022-09-01T10:55:26.980Z,24.77
2022-09-01T11:01:13.432Z,24.88
2022-09-01T11:04:02.575Z,24.99
2022-09-01T11:07:14.446Z,25.06
2022-09-01T11:09:45.669Z,25.06
2022-09-01T11:12:29.724Z,25.20
2022-09-01T11:14:59.859Z,25.27
2022-09-01T11:17:30.873Z,25.41
2022-09-01T11:20:08.769Z,25.53
2022-09-01T11:22:39.352Z,25.62
2022-09-01T11:25:43.859Z,25.62
2022-09-01T11:28:43.514Z,25.71
2022-09-01T11:31:38.921Z,25.66
2022-09-01T11:34:14.005Z,25.79
2022-09-01T11:36:53.899Z,25.80
2022-09-01T11:39:32.596Z,25.88
2022-09-01T11:42:05.627Z,25.96
2022-09-01T11:44:40.101Z,26.02
2022-09-01T11:47:16.141Z,26.07
2022-09-01T11:49:51.088Z,26.13
2022-09-01T11:52:20.653Z,26.17
2022-09-01T11:54:49.214Z,26.17
2022-09-01T11:57:30.508Z,26.21
2022-09-01T12:00:01.660Z,26.01
2022-09-01T12:02:33.458Z,26.12
2022-09-01T12:05:24.983Z,26.12
2022-09-01T12:07:52.688Z,26.26
2022-09-01T12:10:26.261Z,26.32
2022-09-01T12:13:01.894Z,26.35
2022-09-01T12:15:30.973Z,26.47
2022-09-01T12:18:14.840Z,26.46
2022-09-01T12:20:42.855Z,26.49
2022-09-01T12:23:20.266Z,26.27
2022-09-01T12:25:48.298Z,26.10
2022-09-01T12:28:16.852Z,25.99
2022-09-01T12:30:46.072Z,25.94
2022-09-01T12:33:23.510Z,26.02
2022-09-01T12:35:53.979Z,26.02
2022-09-01T12:38:26.168Z,26.11
2022-09-01T12:40:55.172Z,26.25
2022-09-01T12:43:31.916Z,26.46
2022-09-01T12:46:02.929Z,26.42
2022-09-01T12:48:34.021Z,26.44
2022-09-01T12:51:03.819Z,26.30
2022-09-01T12:53:36.594Z,26.52
2022-09-01T12:56:29.716Z,26.48
2022-09-01T12:59:09.599Z,26.70
2022-09-01T13:01:43.526Z,26.66
2022-09-01T13:04:23.925Z,26.67
2022-09-01T13:06:52.484Z,26.73
2022-09-01T13:09:20.118Z,26.90
2022-09-01T13:14:36.027Z,26.87
2022-09-01T13:17:05.908Z,26.85
2022-09-01T13:19:41.731Z,27.03
2022-09-01T13:22:09.351Z,27.15
2022-09-01T13:24:36.963Z,27.11
2022-09-01T13:27:21.025Z,27.19
2022-09-01T13:29:49.301Z,27.18
2022-09-01T13:32:20.813Z,26.94
2022-09-01T13:34:50.781Z,27.06
2022-09-01T13:37:19.791Z,27.09
2022-09-01T13:39:48.380Z,27.16
2022-09-01T13:42:16.688Z,27.09
2022-09-01T13:44:44.540Z,26.80
2022-09-01T13:50:11.433Z,26.90
2022-09-01T13:52:40.837Z,27.04
2022-09-01T13:55:11.426Z,27.02
2022-09-01T13:57:39.333Z,27.02
2022-09-01T14:00:11.060Z,27.08
2022-09-01T14:02:39.781Z,27.20
2022-09-01T14:05:10.221Z,27.35
2022-09-01T14:07:38.064Z,27.45
2022-09-01T14:10:07.509Z,27.32
2022-09-01T14:12:35.374Z,27.21
2022-09-01T14:15:12.280Z,27.18
2022-09-01T14:17:42.882Z,27.22
2022-09-01T14:20:15.193Z,27.29
2022-09-01T14:22:46.287Z,27.38
2022-09-01T14:25:15.069Z,27.48
2022-09-01T14:27:44.759Z,27.50
2022-09-01T14:30:16.711Z,27.53
2022-09-01T14:32:44.630Z,27.34
2022-09-01T14:35:14.780Z,27.44
2022-09-01T14:37:42.415Z,27.38
2022-09-01T14:40:16.439Z,27.17
2022-09-01T14:42:46.477Z,26.93
2022-09-01T14:45:15.968Z,26.74
2022-09-01T14:47:44.150Z,26.84
2022-09-01T14:50:15.946Z,26.93
2022-09-01T14:52:47.078Z,26.95
2022-09-01T14:55:14.987Z,26.87
2022-09-01T14:57:42.539Z,26.93
2022-09-01T15:00:12.974Z,26.93
2022-09-01T15:02:42.186Z,26.95
2022-09-01T15:05:11.722Z,26.79
2022-09-01T15:07:41.548Z,26.93
2022-09-01T15:10:10.921Z,26.92
2022-09-01T15:12:52.727Z,26.95
2022-09-01T15:15:20.329Z,26.89
2022-09-01T15:17:47.885Z,26.69
2022-09-01T15:20:32.950Z,26.90
2022-09-01T15:23:02.552Z,26.95
2022-09-01T15:25:30.181Z,26.92
2022-09-01T15:27:57.728Z,26.84
2022-09-01T15:30:25.309Z,26.94
2022-09-01T15:32:54.274Z,26.82
2022-09-01T15:35:23.127Z,26.94
2022-09-01T15:37:52.597Z,26.98
2022-09-01T15:40:21.714Z,26.93
2022-09-01T15:42:49.729Z,26.85
2022-09-01T15:45:20.185Z,26.78
2022-09-01T15:47:48.226Z,26.77
2022-09-01T15:50:21.818Z,26.84
2022-09-01T15:52:52.757Z,26.78
2022-09-01T15:55:24.692Z,26.76
2022-09-01T15:57:54.754Z,26.69
2022-09-01T16:00:23.871Z,26.57
2022-09-01T16:02:54.204Z,26.39
2022-09-01T16:05:21.876Z,26.32
2022-09-01T16:07:51.422Z,26.34
2022-09-01T16:10:19.496Z,26.31
2022-09-01T16:12:49.794Z,26.18
2022-09-01T16:15:19.837Z,26.16
2022-09-01T16:18:13.539Z,26.31
2022-09-01T16:20:50.748Z,26.16
2022-09-01T16:23:20.506Z,26.21
2022-09-01T16:25:48.433Z,26.19
2022-09-01T16:28:26.191Z,26.06
2022-09-01T16:30:59.049Z,26.01
2022-09-01T16:33:26.735Z,25.88
2022-09-01T16:36:08.315Z,25.69
2022-09-01T16:38:46.994Z,25.50
2022-09-01T16:41:28.006Z,25.55
2022-09-01T16:44:06.660Z,25.56
2022-09-01T16:46:43.073Z,25.39
2022-09-01T16:49:19.638Z,25.45
2022-09-01T16:51:58.421Z,25.49
2022-09-01T16:54:37.237Z,25.42
2022-09-01T16:57:09.135Z,25.32
2022-09-01T16:59:51.780Z,25.29
2022-09-01T17:02:35.786Z,25.31
2022-09-01T17:05:13.253Z,25.06
2022-09-01T17:07:50.462Z,24.94
2022-09-01T17:10:27.518Z,24.91
2022-09-01T17:12:56.792Z,24.97
2022-09-01T17:15:31.497Z,24.82
2022-09-01T17:18:09.143Z,24.82
2022-09-01T17:20:57.983Z,24.88
2022-09-01T17:23:29.125Z,24.94
2022-09-01T17:26:01.577Z,24.75
2022-09-01T17:28:35.513Z,24.60
2022-09-01T17:31:14.450Z,24.61
2022-09-01T17:33:56.833Z,24.57
2022-09-01T17:36:41.298Z,24.51
2022-09-01T17:39:20.609Z,24.58
2022-09-01T17:41:55.569Z,24.59
2022-09-01T17:44:35.561Z,24.64
2022-09-01T17:47:12.507Z,24.65
2022-09-01T17:49:48.596Z,24.63
2022-09-01T17:52:24.156Z,24.62
2022-09-01T17:54:59.896Z,24.59
2022-09-01T17:57:33.724Z,24.52
2022-09-01T18:00:06.932Z,24.41
2022-09-01T18:03:04.648Z,24.47
2022-09-01T18:05:40.368Z,24.34
2022-09-01T18:08:30.239Z,24.30
2022-09-01T18:11:01.000Z,24.30
2022-09-01T18:13:52.494Z,24.34
2022-09-01T18:16:25.581Z,24.25
2022-09-01T18:18:54.928Z,24.18
2022-09-01T18:21:26.127Z,24.05
2022-09-01T18:23:58.844Z,23.87
2022-09-01T18:26:32.268Z,23.94
2022-09-01T18:29:01.675Z,23.92
2022-09-01T18:32:00.227Z,24.05
2022-09-01T18:34:46.586Z,23.94
2022-09-01T18:37:20.858Z,23.85
2022-09-01T18:39:58.356Z,23.93
2022-09-01T18:42:32.759Z,23.85
2022-09-01T18:45:07.085Z,23.73
2022-09-01T18:47:37.575Z,23.69
2022-09-01T18:50:15.212Z,23.76
2022-09-01T18:52:53.798Z,23.68
2022-09-01T18:55:27.974Z,23.62
2022-09-01T18:57:58.916Z,23.67
2022-09-01T19:00:31.489Z,23.66
2022-09-01T19:03:12.146Z,23.64
2022-09-01T19:05:52.566Z,23.53
2022-09-01T19:08:27.851Z,23.50
2022-09-01T19:11:02.322Z,23.45
2022-09-01T19:13:47.163Z,23.31
2022-09-01T19:16:26.994Z,23.31
2022-09-01T19:19:01.448Z,23.27
2022-09-01T19:21:33.117Z,23.10
2022-09-01T19:24:07.373Z,23.10
2022-09-01T19:26:40.192Z,23.05
2022-09-01T19:29:13.506Z,23.00
2022-09-01T19:31:45.157Z,23.11
2022-09-01T19:34:16.375Z,22.88
2022-09-01T19:36:47.717Z,23.07
2022-09-01T19:39:18.221Z,23.04
2022-09-01T19:41:52.172Z,22.83
2022-09-01T19:44:27.434Z,22.83
2022-09-01T19:47:04.074Z,22.89
2022-09-01T19:49:39.410Z,22.91
2022-09-01T19:52:15.861Z,22.75
2022-09-01T19:54:51.938Z,22.91
2022-09-01T19:57:26.806Z,22.80
2022-09-01T20:00:02.740Z,22.89
2022-09-01T20:02:33.252Z,22.89
2022-09-01T20:05:08.685Z,22.90
2022-09-01T20:07:44.036Z,22.79
2022-09-01T20:10:23.146Z,22.78
2022-09-01T20:13:05.284Z,22.63
2022-09-01T20:15:41.079Z,22.63
2022-09-01T20:18:13.744Z,22.74
2022-09-01T20:20:46.036Z,22.52
2022-09-01T20:23:27.268Z,22.46
2022-09-01T20:26:00.119Z,22.44
2022-09-01T20:28:35.821Z,22.29
2022-09-01T20:31:08.386Z,22.28
2022-09-01T20:33:41.934Z,22.06
2022-09-01T20:36:15.561Z,22.13
2022-09-01T20:39:10.956Z,22.04
2022-09-01T20:41:43.894Z,22.10
2022-09-01T20:44:16.982Z,22.13
2022-09-01T20:46:44.544Z,21.90
2022-09-01T20:49:16.829Z,21.86
2022-09-01T20:51:54.630Z,21.75
2022-09-01T20:54:34.965Z,21.86
2022-09-01T20:57:11.863Z,21.82
2022-09-01T20:59:46.361Z,21.81
2022-09-01T21:02:28.834Z,21.71
2022-09-01T21:05:03.570Z,21.53
2022-09-01T21:07:36.242Z,21.39
2022-09-01T21:10:15.542Z,21.32
2022-09-01T21:12:49.644Z,21.39
2022-09-01T21:15:30.114Z,21.38
2022-09-01T21:18:12.560Z,21.32
2022-09-01T21:20:56.705Z,21.08
2022-09-01T21:23:26.124Z,21.20
2022-09-01T21:25:55.233Z,21.23
2022-09-01T21:28:26.307Z,21.12
2022-09-01T21:30:57.097Z,21.22
2022-09-01T21:33:27.120Z,21.15
2022-09-01T21:35:55.221Z,21.11
2022-09-01T21:38:23.020Z,21.14
2022-09-01T21:40:52.962Z,21.01
2022-09-01T21:43:24.759Z,21.04
2022-09-01T21:45:52.683Z,21.08
2022-09-01T21:48:20.852Z,21.02
2022-09-01T21:50:48.559Z,20.90
2022-09-01T21:53:16.210Z,20.89
2022-09-01T21:55:43.834Z,20.76
2022-09-01T21:58:11.699Z,20.65
2022-09-01T22:00:43.234Z,20.68
2022-09-01T22:03:12.023Z,20.65
2022-09-01T22:05:42.164Z,20.76
2022-09-01T22:08:12.038Z,20.74
2022-09-01T22:10:44.575Z,20.64
2022-09-01T22:13:12.289Z,20.49
2022-09-01T22:15:45.305Z,20.53
2022-09-01T22:18:14.153Z,20.41
2022-09-01T22:20:42.238Z,20.20
2022-09-01T22:23:10.666Z,20.41
2022-09-01T22:25:42.272Z,20.26
2022-09-01T22:28:10.686Z,20.36
2022-09-01T22:30:44.444Z,20.26
2022-09-01T22:33:15.926Z,20.16
2022-09-01T22:35:44.405Z,20.06
2022-09-01T22:38:12.632Z,20.09
2022-09-01T22:40:44.650Z,19.77
2022-09-01T22:43:12.293Z,19.90
2022-09-01T22:45:42.128Z,19.80
2022-09-01T22:48:09.878Z,19.80
2022-09-01T22:50:40.930Z,19.68
2022-09-01T22:53:09.309Z,19.46
2022-09-01T22:55:37.910Z,19.52
2022-09-01T22:58:06.747Z,19.69
2022-09-01T23:00:35.055Z,19.48
2022-09-01T23:03:03.226Z,19.34
2022-09-01T23:05:31.394Z,19.32
2022-09-01T23:08:00.286Z,19.64
2022-09-01T23:10:28.586Z,19.73
2022-09-01T23:12:56.386Z,19.80
2022-09-01T23:15:23.939Z,19.83
2022-09-01T23:17:51.514Z,19.88
2022-09-01T23:20:19.105Z,19.94
2022-09-01T23:22:47.248Z,19.95
2022-09-01T23:25:17.316Z,19.76
2022-09-01T23:27:44.906Z,19.58
2022-09-01T23:30:15.232Z,19.68
2022-09-01T23:32:42.919Z,19.68
2022-09-01T23:35:11.672Z,19.80
2022-09-01T23:37:39.284Z,19.71
2022-09-01T23:40:08.941Z,19.79
2022-09-01T23:42:37.859Z,19.81
2022-09-01T23:45:06.764Z,19.69
2022-09-01T23:47:35.591Z,19.38
2022-09-01T23:50:03.402Z,19.45
2022-09-01T23:52:31.201Z,19.51
2022-09-01T23:54:59.708Z,19.44
2022-09-01T23:57:27.435Z,19.20
2022-09-01T23:59:58.091Z,19.12
